Terminal Aerodrome Forecast
Issued by NWS

Home | Current Version | Previous Version | Graphics & Text | Print | Product List | Glossary Off
Versions: 1 2 3 4 5 6 7 8 9 10 11 12 13 14 15 16 17 18 19 20 21 22 23 24 25

000
FTUS43 KDDC 201120
TAFGCK
TAF
KGCK 201120Z 2012/2112 14015KT P6SM SCT090
     FM201900 14013G22KT P6SM -RA OVC070
     FM202200 14013G22KT P6SM -RA OVC040
     FM210100 12013G18KT 6SM -RA OVC020
     FM210300 11012G18KT 5SM -RA OVC008=

USA.gov is the U.S. government's official web portal to all federal, state and local government web resources and services.